sensor_id;sensor_type;location;lat;lon;timestamp;P1;durP1;ratioP1;P2;durP2;ratioP2
84966;SDS011;75275;51.348;12.358;2024-03-02T00:01:44;44.83;;;22.30;;
84966;SDS011;75275;51.348;12.358;2024-03-02T00:04:13;42.00;;;21.27;;
84966;SDS011;75275;51.348;12.358;2024-03-02T00:06:42;39.63;;;21.67;;
84966;SDS011;75275;51.348;12.358;2024-03-02T00:09:10;43.13;;;21.33;;
84966;SDS011;75275;51.348;12.358;2024-03-02T00:11:37;41.53;;;22.80;;
84966;SDS011;75275;51.348;12.358;2024-03-02T00:14:05;38.55;;;21.25;;
84966;SDS011;75275;51.348;12.358;2024-03-02T00:16:33;40.50;;;22.13;;
84966;SDS011;75275;51.348;12.358;2024-03-02T00:19:01;37.95;;;20.80;;
84966;SDS011;75275;51.348;12.358;2024-03-02T00:21:30;42.50;;;22.50;;
84966;SDS011;75275;51.348;12.358;2024-03-02T00:23:59;38.72;;;20.90;;
84966;SDS011;75275;51.348;12.358;2024-03-02T00:26:28;36.78;;;21.00;;
84966;SDS011;75275;51.348;12.358;2024-03-02T00:28:56;42.42;;;21.40;;
84966;SDS011;75275;51.348;12.358;2024-03-02T00:31:23;39.28;;;20.85;;
84966;SDS011;75275;51.348;12.358;2024-03-02T00:33:52;41.92;;;21.80;;
84966;SDS011;75275;51.348;12.358;2024-03-02T00:36:22;39.45;;;20.58;;
84966;SDS011;75275;51.348;12.358;2024-03-02T00:38:54;43.95;;;21.75;;
84966;SDS011;75275;51.348;12.358;2024-03-02T00:41:24;40.90;;;21.80;;
84966;SDS011;75275;51.348;12.358;2024-03-02T00:43:56;35.85;;;19.75;;
84966;SDS011;75275;51.348;12.358;2024-03-02T00:46:26;38.42;;;21.25;;
84966;SDS011;75275;51.348;12.358;2024-03-02T00:48:55;41.35;;;21.73;;
84966;SDS011;75275;51.348;12.358;2024-03-02T00:51:23;41.22;;;20.42;;
84966;SDS011;75275;51.348;12.358;2024-03-02T00:53:51;40.25;;;20.40;;
84966;SDS011;75275;51.348;12.358;2024-03-02T00:56:21;44.85;;;21.08;;
84966;SDS011;75275;51.348;12.358;2024-03-02T00:58:49;37.95;;;19.98;;
84966;SDS011;75275;51.348;12.358;2024-03-02T01:01:17;39.35;;;20.85;;
84966;SDS011;75275;51.348;12.358;2024-03-02T01:03:45;35.78;;;20.70;;
84966;SDS011;75275;51.348;12.358;2024-03-02T01:06:14;40.72;;;20.50;;
84966;SDS011;75275;51.348;12.358;2024-03-02T01:08:41;38.55;;;19.85;;
84966;SDS011;75275;51.348;12.358;2024-03-02T01:11:10;39.58;;;21.40;;
84966;SDS011;75275;51.348;12.358;2024-03-02T01:13:40;38.15;;;21.60;;
84966;SDS011;75275;51.348;12.358;2024-03-02T01:16:08;38.42;;;20.55;;
84966;SDS011;75275;51.348;12.358;2024-03-02T01:18:35;42.03;;;21.33;;
84966;SDS011;75275;51.348;12.358;2024-03-02T01:21:02;33.47;;;19.35;;
84966;SDS011;75275;51.348;12.358;2024-03-02T01:23:32;40.58;;;21.58;;
84966;SDS011;75275;51.348;12.358;2024-03-02T01:25:59;38.83;;;20.45;;
84966;SDS011;75275;51.348;12.358;2024-03-02T01:28:26;35.47;;;19.08;;
84966;SDS011;75275;51.348;12.358;2024-03-02T01:30:56;39.38;;;19.50;;
84966;SDS011;75275;51.348;12.358;2024-03-02T01:33:23;35.53;;;19.73;;
84966;SDS011;75275;51.348;12.358;2024-03-02T01:35:50;36.03;;;19.05;;
84966;SDS011;75275;51.348;12.358;2024-03-02T01:38:17;39.85;;;20.20;;
84966;SDS011;75275;51.348;12.358;2024-03-02T01:40:48;34.25;;;18.90;;
84966;SDS011;75275;51.348;12.358;2024-03-02T01:43:15;33.80;;;18.13;;
84966;SDS011;75275;51.348;12.358;2024-03-02T01:45:42;33.55;;;18.25;;
84966;SDS011;75275;51.348;12.358;2024-03-02T01:48:10;34.38;;;19.17;;
84966;SDS011;75275;51.348;12.358;2024-03-02T01:50:38;33.42;;;18.67;;
84966;SDS011;75275;51.348;12.358;2024-03-02T01:53:05;31.70;;;17.33;;
84966;SDS011;75275;51.348;12.358;2024-03-02T01:55:33;30.70;;;18.08;;
84966;SDS011;75275;51.348;12.358;2024-03-02T01:58:00;33.80;;;18.13;;
84966;SDS011;75275;51.348;12.358;2024-03-02T02:00:32;34.83;;;17.98;;
84966;SDS011;75275;51.348;12.358;2024-03-02T02:02:59;33.42;;;17.52;;
84966;SDS011;75275;51.348;12.358;2024-03-02T02:05:28;31.90;;;17.30;;
84966;SDS011;75275;51.348;12.358;2024-03-02T02:07:56;31.17;;;17.77;;
84966;SDS011;75275;51.348;12.358;2024-03-02T02:10:24;32.72;;;15.68;;
84966;SDS011;75275;51.348;12.358;2024-03-02T02:12:51;32.65;;;16.63;;
84966;SDS011;75275;51.348;12.358;2024-03-02T02:15:22;34.83;;;18.38;;
84966;SDS011;75275;51.348;12.358;2024-03-02T02:17:50;26.42;;;15.52;;
84966;SDS011;75275;51.348;12.358;2024-03-02T02:20:18;29.73;;;15.35;;
84966;SDS011;75275;51.348;12.358;2024-03-02T02:22:59;27.55;;;15.82;;
84966;SDS011;75275;51.348;12.358;2024-03-02T02:25:27;30.48;;;15.38;;
84966;SDS011;75275;51.348;12.358;2024-03-02T02:27:54;28.30;;;14.55;;
84966;SDS011;75275;51.348;12.358;2024-03-02T02:30:24;34.97;;;16.23;;
84966;SDS011;75275;51.348;12.358;2024-03-02T02:32:52;28.73;;;15.40;;
84966;SDS011;75275;51.348;12.358;2024-03-02T02:35:20;27.15;;;14.88;;
84966;SDS011;75275;51.348;12.358;2024-03-02T02:37:47;24.77;;;15.02;;
84966;SDS011;75275;51.348;12.358;2024-03-02T02:40:17;30.25;;;16.60;;
84966;SDS011;75275;51.348;12.358;2024-03-02T02:42:45;24.83;;;14.23;;
84966;SDS011;75275;51.348;12.358;2024-03-02T02:45:13;28.67;;;15.30;;
84966;SDS011;75275;51.348;12.358;2024-03-02T02:47:40;31.05;;;16.27;;
84966;SDS011;75275;51.348;12.358;2024-03-02T02:50:07;26.63;;;14.52;;
84966;SDS011;75275;51.348;12.358;2024-03-02T02:52:35;28.30;;;15.85;;
84966;SDS011;75275;51.348;12.358;2024-03-02T02:55:05;28.00;;;14.73;;
84966;SDS011;75275;51.348;12.358;2024-03-02T02:57:34;28.52;;;14.45;;
84966;SDS011;75275;51.348;12.358;2024-03-02T03:00:05;27.92;;;14.70;;
84966;SDS011;75275;51.348;12.358;2024-03-02T03:02:35;25.08;;;13.95;;
84966;SDS011;75275;51.348;12.358;2024-03-02T03:05:04;29.17;;;15.20;;
84966;SDS011;75275;51.348;12.358;2024-03-02T03:07:31;26.25;;;14.75;;
84966;SDS011;75275;51.348;12.358;2024-03-02T03:09:59;25.05;;;14.30;;
84966;SDS011;75275;51.348;12.358;2024-03-02T03:12:26;28.98;;;14.30;;
84966;SDS011;75275;51.348;12.358;2024-03-02T03:14:55;27.27;;;14.80;;
84966;SDS011;75275;51.348;12.358;2024-03-02T03:17:22;26.83;;;14.50;;
84966;SDS011;75275;51.348;12.358;2024-03-02T03:19:49;27.63;;;14.68;;
84966;SDS011;75275;51.348;12.358;2024-03-02T03:22:17;26.63;;;15.30;;
84966;SDS011;75275;51.348;12.358;2024-03-02T03:24:44;27.00;;;15.32;;
84966;SDS011;75275;51.348;12.358;2024-03-02T03:27:11;26.58;;;14.35;;
84966;SDS011;75275;51.348;12.358;2024-03-02T03:29:38;26.00;;;14.15;;
84966;SDS011;75275;51.348;12.358;2024-03-02T03:32:08;27.25;;;14.48;;
84966;SDS011;75275;51.348;12.358;2024-03-02T03:34:35;25.48;;;13.50;;
84966;SDS011;75275;51.348;12.358;2024-03-02T03:37:02;24.02;;;13.65;;
84966;SDS011;75275;51.348;12.358;2024-03-02T03:39:31;23.33;;;12.68;;
84966;SDS011;75275;51.348;12.358;2024-03-02T03:42:00;26.05;;;14.48;;
84966;SDS011;75275;51.348;12.358;2024-03-02T03:46:54;23.75;;;13.68;;
84966;SDS011;75275;51.348;12.358;2024-03-02T03:49:26;26.52;;;13.80;;
84966;SDS011;75275;51.348;12.358;2024-03-02T03:51:54;22.88;;;12.32;;
84966;SDS011;75275;51.348;12.358;2024-03-02T03:54:21;24.38;;;13.27;;
84966;SDS011;75275;51.348;12.358;2024-03-02T03:56:48;23.92;;;13.10;;
84966;SDS011;75275;51.348;12.358;2024-03-02T03:59:15;24.08;;;14.30;;
84966;SDS011;75275;51.348;12.358;2024-03-02T04:04:08;25.10;;;13.38;;
84966;SDS011;75275;51.348;12.358;2024-03-02T04:06:37;24.45;;;12.40;;
84966;SDS011;75275;51.348;12.358;2024-03-02T04:09:04;24.63;;;12.70;;
84966;SDS011;75275;51.348;12.358;2024-03-02T04:11:32;21.45;;;12.70;;
84966;SDS011;75275;51.348;12.358;2024-03-02T04:16:26;25.05;;;12.57;;
84966;SDS011;75275;51.348;12.358;2024-03-02T04:18:53;24.15;;;12.80;;
84966;SDS011;75275;51.348;12.358;2024-03-02T04:21:20;23.08;;;12.85;;
84966;SDS011;75275;51.348;12.358;2024-03-02T04:23:49;23.13;;;12.95;;
84966;SDS011;75275;51.348;12.358;2024-03-02T04:26:17;21.77;;;13.52;;
84966;SDS011;75275;51.348;12.358;2024-03-02T04:28:47;24.13;;;12.15;;
84966;SDS011;75275;51.348;12.358;2024-03-02T04:31:17;25.90;;;12.70;;
84966;SDS011;75275;51.348;12.358;2024-03-02T04:33:44;26.13;;;13.27;;
84966;SDS011;75275;51.348;12.358;2024-03-02T04:38:38;22.55;;;11.52;;
84966;SDS011;75275;51.348;12.358;2024-03-02T04:41:07;24.35;;;12.50;;
84966;SDS011;75275;51.348;12.358;2024-03-02T04:43:34;20.77;;;11.43;;
84966;SDS011;75275;51.348;12.358;2024-03-02T04:46:01;23.73;;;13.38;;
84966;SDS011;75275;51.348;12.358;2024-03-02T04:48:28;24.02;;;12.68;;
84966;SDS011;75275;51.348;12.358;2024-03-02T04:53:22;24.13;;;11.95;;
84966;SDS011;75275;51.348;12.358;2024-03-02T04:55:49;25.95;;;12.55;;
84966;SDS011;75275;51.348;12.358;2024-03-02T04:58:46;22.20;;;12.55;;
84966;SDS011;75275;51.348;12.358;2024-03-02T05:01:13;20.75;;;11.95;;
84966;SDS011;75275;51.348;12.358;2024-03-02T05:03:41;22.98;;;12.60;;
84966;SDS011;75275;51.348;12.358;2024-03-02T05:06:08;29.95;;;13.57;;
84966;SDS011;75275;51.348;12.358;2024-03-02T05:08:35;26.45;;;13.15;;
84966;SDS011;75275;51.348;12.358;2024-03-02T05:13:43;21.77;;;12.35;;
84966;SDS011;75275;51.348;12.358;2024-03-02T05:16:12;21.17;;;11.32;;
84966;SDS011;75275;51.348;12.358;2024-03-02T05:18:39;23.48;;;12.70;;
84966;SDS011;75275;51.348;12.358;2024-03-02T05:21:06;24.85;;;12.07;;
84966;SDS011;75275;51.348;12.358;2024-03-02T05:23:33;25.60;;;12.68;;
84966;SDS011;75275;51.348;12.358;2024-03-02T05:25:59;25.38;;;11.82;;
84966;SDS011;75275;51.348;12.358;2024-03-02T05:30:53;22.33;;;12.20;;
84966;SDS011;75275;51.348;12.358;2024-03-02T05:33:22;23.65;;;12.85;;
84966;SDS011;75275;51.348;12.358;2024-03-02T05:35:49;30.10;;;14.73;;
84966;SDS011;75275;51.348;12.358;2024-03-02T05:38:16;23.92;;;13.02;;
84966;SDS011;75275;51.348;12.358;2024-03-02T05:40:43;23.60;;;13.05;;
84966;SDS011;75275;51.348;12.358;2024-03-02T05:43:11;28.77;;;13.82;;
84966;SDS011;75275;51.348;12.358;2024-03-02T05:45:38;25.13;;;13.80;;
84966;SDS011;75275;51.348;12.358;2024-03-02T05:48:06;24.65;;;13.23;;
84966;SDS011;75275;51.348;12.358;2024-03-02T05:50:35;26.05;;;13.70;;
84966;SDS011;75275;51.348;12.358;2024-03-02T05:53:03;24.98;;;12.98;;
84966;SDS011;75275;51.348;12.358;2024-03-02T05:55:30;24.88;;;13.18;;
84966;SDS011;75275;51.348;12.358;2024-03-02T05:57:57;21.83;;;12.43;;
84966;SDS011;75275;51.348;12.358;2024-03-02T06:00:40;21.95;;;11.77;;
84966;SDS011;75275;51.348;12.358;2024-03-02T06:03:07;24.92;;;13.00;;
84966;SDS011;75275;51.348;12.358;2024-03-02T06:05:36;25.55;;;12.30;;
84966;SDS011;75275;51.348;12.358;2024-03-02T06:08:03;25.77;;;14.35;;
84966;SDS011;75275;51.348;12.358;2024-03-02T06:10:31;24.45;;;13.40;;
84966;SDS011;75275;51.348;12.358;2024-03-02T06:12:58;25.00;;;13.23;;
84966;SDS011;75275;51.348;12.358;2024-03-02T06:15:25;24.23;;;12.95;;
84966;SDS011;75275;51.348;12.358;2024-03-02T06:17:53;27.05;;;13.57;;
84966;SDS011;75275;51.348;12.358;2024-03-02T06:20:20;23.80;;;12.85;;
84966;SDS011;75275;51.348;12.358;2024-03-02T06:22:49;25.90;;;13.07;;
84966;SDS011;75275;51.348;12.358;2024-03-02T06:25:16;26.60;;;14.60;;
84966;SDS011;75275;51.348;12.358;2024-03-02T06:27:43;26.50;;;14.20;;
84966;SDS011;75275;51.348;12.358;2024-03-02T06:30:10;24.98;;;13.90;;
84966;SDS011;75275;51.348;12.358;2024-03-02T06:32:38;25.08;;;13.95;;
84966;SDS011;75275;51.348;12.358;2024-03-02T06:37:35;25.17;;;13.65;;
84966;SDS011;75275;51.348;12.358;2024-03-02T06:40:04;28.17;;;13.45;;
84966;SDS011;75275;51.348;12.358;2024-03-02T06:42:33;26.60;;;14.05;;
84966;SDS011;75275;51.348;12.358;2024-03-02T06:47:26;28.95;;;13.98;;
84966;SDS011;75275;51.348;12.358;2024-03-02T06:49:53;32.50;;;16.02;;
84966;SDS011;75275;51.348;12.358;2024-03-02T06:52:22;30.15;;;14.52;;
84966;SDS011;75275;51.348;12.358;2024-03-02T06:54:49;29.63;;;14.80;;
84966;SDS011;75275;51.348;12.358;2024-03-02T06:59:46;28.90;;;15.10;;
84966;SDS011;75275;51.348;12.358;2024-03-02T07:02:15;28.05;;;13.70;;
84966;SDS011;75275;51.348;12.358;2024-03-02T07:04:42;27.92;;;14.30;;
84966;SDS011;75275;51.348;12.358;2024-03-02T07:07:10;29.95;;;14.45;;
84966;SDS011;75275;51.348;12.358;2024-03-02T07:09:37;30.25;;;14.70;;
84966;SDS011;75275;51.348;12.358;2024-03-02T07:12:04;31.17;;;15.05;;
84966;SDS011;75275;51.348;12.358;2024-03-02T07:14:33;28.27;;;15.07;;
84966;SDS011;75275;51.348;12.358;2024-03-02T07:17:17;25.45;;;14.30;;
84966;SDS011;75275;51.348;12.358;2024-03-02T07:19:44;28.50;;;14.65;;
84966;SDS011;75275;51.348;12.358;2024-03-02T07:22:11;31.70;;;14.55;;
84966;SDS011;75275;51.348;12.358;2024-03-02T07:24:39;27.02;;;14.88;;
84966;SDS011;75275;51.348;12.358;2024-03-02T07:27:07;29.50;;;15.38;;
84966;SDS011;75275;51.348;12.358;2024-03-02T07:29:36;30.73;;;16.40;;
84966;SDS011;75275;51.348;12.358;2024-03-02T07:32:04;29.35;;;15.85;;
84966;SDS011;75275;51.348;12.358;2024-03-02T07:34:31;29.02;;;15.85;;
84966;SDS011;75275;51.348;12.358;2024-03-02T07:36:59;28.92;;;15.27;;
84966;SDS011;75275;51.348;12.358;2024-03-02T07:39:26;29.10;;;16.08;;
84966;SDS011;75275;51.348;12.358;2024-03-02T07:41:54;31.90;;;15.05;;
84966;SDS011;75275;51.348;12.358;2024-03-02T07:44:21;29.98;;;15.00;;
84966;SDS011;75275;51.348;12.358;2024-03-02T07:46:50;30.83;;;15.55;;
84966;SDS011;75275;51.348;12.358;2024-03-02T07:49:17;26.23;;;14.75;;
84966;SDS011;75275;51.348;12.358;2024-03-02T07:51:44;28.35;;;16.05;;
84966;SDS011;75275;51.348;12.358;2024-03-02T07:54:11;27.85;;;14.27;;
84966;SDS011;75275;51.348;12.358;2024-03-02T07:56:39;25.98;;;14.63;;
84966;SDS011;75275;51.348;12.358;2024-03-02T08:01:33;25.15;;;13.32;;
84966;SDS011;75275;51.348;12.358;2024-03-02T08:04:02;29.55;;;14.20;;
84966;SDS011;75275;51.348;12.358;2024-03-02T08:06:30;27.45;;;15.27;;
84966;SDS011;75275;51.348;12.358;2024-03-02T08:08:57;26.48;;;15.15;;
84966;SDS011;75275;51.348;12.358;2024-03-02T08:11:54;30.10;;;15.45;;
84966;SDS011;75275;51.348;12.358;2024-03-02T08:14:22;29.65;;;15.65;;
84966;SDS011;75275;51.348;12.358;2024-03-02T08:16:49;26.02;;;14.68;;
84966;SDS011;75275;51.348;12.358;2024-03-02T08:19:16;31.10;;;16.20;;
84966;SDS011;75275;51.348;12.358;2024-03-02T08:21:43;23.95;;;14.35;;
84966;SDS011;75275;51.348;12.358;2024-03-02T08:24:11;28.92;;;15.93;;
84966;SDS011;75275;51.348;12.358;2024-03-02T08:26:38;28.88;;;15.57;;
84966;SDS011;75275;51.348;12.358;2024-03-02T08:29:07;33.03;;;18.10;;
84966;SDS011;75275;51.348;12.358;2024-03-02T08:31:34;29.35;;;15.80;;
84966;SDS011;75275;51.348;12.358;2024-03-02T08:34:02;27.80;;;15.15;;
84966;SDS011;75275;51.348;12.358;2024-03-02T08:38:56;28.17;;;15.32;;
84966;SDS011;75275;51.348;12.358;2024-03-02T08:41:23;27.85;;;15.50;;
84966;SDS011;75275;51.348;12.358;2024-03-02T08:43:50;29.10;;;15.57;;
84966;SDS011;75275;51.348;12.358;2024-03-02T08:46:19;26.48;;;14.57;;
84966;SDS011;75275;51.348;12.358;2024-03-02T08:48:46;29.08;;;16.17;;
84966;SDS011;75275;51.348;12.358;2024-03-02T08:51:13;24.98;;;14.68;;
84966;SDS011;75275;51.348;12.358;2024-03-02T08:53:40;28.67;;;14.65;;
84966;SDS011;75275;51.348;12.358;2024-03-02T08:56:11;30.63;;;15.75;;
84966;SDS011;75275;51.348;12.358;2024-03-02T08:58:38;32.65;;;15.98;;
84966;SDS011;75275;51.348;12.358;2024-03-02T09:01:05;30.77;;;15.70;;
84966;SDS011;75275;51.348;12.358;2024-03-02T09:03:35;30.30;;;16.27;;
84966;SDS011;75275;51.348;12.358;2024-03-02T09:06:02;31.50;;;16.17;;
84966;SDS011;75275;51.348;12.358;2024-03-02T09:08:30;28.83;;;15.77;;
84966;SDS011;75275;51.348;12.358;2024-03-02T09:10:57;26.65;;;14.75;;
84966;SDS011;75275;51.348;12.358;2024-03-02T09:13:25;26.83;;;16.75;;
84966;SDS011;75275;51.348;12.358;2024-03-02T09:15:52;27.40;;;15.30;;
84966;SDS011;75275;51.348;12.358;2024-03-02T09:18:19;32.00;;;16.20;;
84966;SDS011;75275;51.348;12.358;2024-03-02T09:20:47;25.92;;;14.30;;
84966;SDS011;75275;51.348;12.358;2024-03-02T09:23:14;32.10;;;16.42;;
84966;SDS011;75275;51.348;12.358;2024-03-02T09:25:41;32.35;;;15.55;;
84966;SDS011;75275;51.348;12.358;2024-03-02T09:28:08;30.13;;;15.65;;
84966;SDS011;75275;51.348;12.358;2024-03-02T09:30:35;31.02;;;16.08;;
84966;SDS011;75275;51.348;12.358;2024-03-02T09:33:02;28.23;;;15.48;;
84966;SDS011;75275;51.348;12.358;2024-03-02T09:35:30;26.48;;;14.77;;
84966;SDS011;75275;51.348;12.358;2024-03-02T09:37:59;27.05;;;14.63;;
84966;SDS011;75275;51.348;12.358;2024-03-02T09:40:26;24.80;;;14.70;;
84966;SDS011;75275;51.348;12.358;2024-03-02T09:42:53;28.42;;;15.93;;
84966;SDS011;75275;51.348;12.358;2024-03-02T09:45:22;28.13;;;16.27;;
84966;SDS011;75275;51.348;12.358;2024-03-02T09:47:50;25.00;;;14.82;;
84966;SDS011;75275;51.348;12.358;2024-03-02T09:50:18;26.88;;;14.18;;
84966;SDS011;75275;51.348;12.358;2024-03-02T09:52:46;28.00;;;14.60;;
84966;SDS011;75275;51.348;12.358;2024-03-02T09:55:16;27.80;;;15.35;;
84966;SDS011;75275;51.348;12.358;2024-03-02T09:57:45;24.15;;;13.90;;
84966;SDS011;75275;51.348;12.358;2024-03-02T10:00:14;25.08;;;14.02;;
84966;SDS011;75275;51.348;12.358;2024-03-02T10:02:41;27.00;;;14.57;;
84966;SDS011;75275;51.348;12.358;2024-03-02T10:05:09;28.40;;;14.77;;
84966;SDS011;75275;51.348;12.358;2024-03-02T10:07:37;24.55;;;12.98;;
84966;SDS011;75275;51.348;12.358;2024-03-02T10:10:13;26.50;;;14.95;;
84966;SDS011;75275;51.348;12.358;2024-03-02T10:12:42;25.23;;;13.15;;
84966;SDS011;75275;51.348;12.358;2024-03-02T10:15:09;22.90;;;12.98;;
84966;SDS011;75275;51.348;12.358;2024-03-02T10:17:37;21.67;;;13.68;;
84966;SDS011;75275;51.348;12.358;2024-03-02T10:22:49;24.48;;;13.45;;
84966;SDS011;75275;51.348;12.358;2024-03-02T10:25:28;20.83;;;12.52;;
84966;SDS011;75275;51.348;12.358;2024-03-02T10:27:58;23.15;;;12.68;;
84966;SDS011;75275;51.348;12.358;2024-03-02T10:30:25;22.00;;;12.60;;
84966;SDS011;75275;51.348;12.358;2024-03-02T10:32:53;20.00;;;12.52;;
84966;SDS011;75275;51.348;12.358;2024-03-02T10:35:21;22.67;;;12.23;;
84966;SDS011;75275;51.348;12.358;2024-03-02T10:37:49;19.30;;;12.15;;
84966;SDS011;75275;51.348;12.358;2024-03-02T10:40:17;17.08;;;11.10;;
84966;SDS011;75275;51.348;12.358;2024-03-02T10:42:45;19.30;;;11.88;;
84966;SDS011;75275;51.348;12.358;2024-03-02T10:45:14;18.45;;;11.30;;
84966;SDS011;75275;51.348;12.358;2024-03-02T10:47:43;15.55;;;10.35;;
84966;SDS011;75275;51.348;12.358;2024-03-02T10:50:10;17.02;;;10.55;;
84966;SDS011;75275;51.348;12.358;2024-03-02T10:52:37;15.70;;;9.65;;
84966;SDS011;75275;51.348;12.358;2024-03-02T10:55:05;16.83;;;10.07;;
84966;SDS011;75275;51.348;12.358;2024-03-02T10:57:36;13.48;;;8.45;;
84966;SDS011;75275;51.348;12.358;2024-03-02T11:00:08;11.88;;;7.28;;
84966;SDS011;75275;51.348;12.358;2024-03-02T11:02:47;11.73;;;7.50;;
84966;SDS011;75275;51.348;12.358;2024-03-02T11:05:23;12.80;;;6.93;;
84966;SDS011;75275;51.348;12.358;2024-03-02T11:07:56;12.13;;;7.43;;
84966;SDS011;75275;51.348;12.358;2024-03-02T11:10:28;11.63;;;6.88;;
84966;SDS011;75275;51.348;12.358;2024-03-02T11:13:02;14.82;;;7.22;;
84966;SDS011;75275;51.348;12.358;2024-03-02T11:15:32;11.50;;;7.13;;
84966;SDS011;75275;51.348;12.358;2024-03-02T11:18:03;13.70;;;7.55;;
84966;SDS011;75275;51.348;12.358;2024-03-02T11:20:34;14.48;;;8.02;;
84966;SDS011;75275;51.348;12.358;2024-03-02T11:23:07;14.02;;;8.23;;
84966;SDS011;75275;51.348;12.358;2024-03-02T11:25:35;14.05;;;8.10;;
84966;SDS011;75275;51.348;12.358;2024-03-02T11:28:04;13.15;;;7.68;;
84966;SDS011;75275;51.348;12.358;2024-03-02T11:30:50;16.88;;;8.52;;
84966;SDS011;75275;51.348;12.358;2024-03-02T11:33:24;14.38;;;8.10;;
84966;SDS011;75275;51.348;12.358;2024-03-02T11:35:55;13.57;;;7.22;;
84966;SDS011;75275;51.348;12.358;2024-03-02T11:38:27;14.02;;;7.78;;
84966;SDS011;75275;51.348;12.358;2024-03-02T11:40:55;14.15;;;8.15;;
84966;SDS011;75275;51.348;12.358;2024-03-02T11:43:23;13.65;;;8.10;;
84966;SDS011;75275;51.348;12.358;2024-03-02T11:45:57;12.80;;;7.35;;
84966;SDS011;75275;51.348;12.358;2024-03-02T11:48:26;13.00;;;7.57;;
84966;SDS011;75275;51.348;12.358;2024-03-02T11:50:53;14.75;;;8.20;;
84966;SDS011;75275;51.348;12.358;2024-03-02T11:53:24;11.75;;;7.60;;
84966;SDS011;75275;51.348;12.358;2024-03-02T11:55:55;14.55;;;8.52;;
84966;SDS011;75275;51.348;12.358;2024-03-02T11:58:22;13.20;;;8.00;;
84966;SDS011;75275;51.348;12.358;2024-03-02T12:00:51;12.90;;;8.38;;
84966;SDS011;75275;51.348;12.358;2024-03-02T12:03:20;12.57;;;8.07;;
84966;SDS011;75275;51.348;12.358;2024-03-02T12:05:53;14.18;;;8.02;;
84966;SDS011;75275;51.348;12.358;2024-03-02T12:08:21;15.02;;;8.38;;
84966;SDS011;75275;51.348;12.358;2024-03-02T12:13:36;14.80;;;8.32;;
84966;SDS011;75275;51.348;12.358;2024-03-02T12:16:04;13.95;;;7.35;;
84966;SDS011;75275;51.348;12.358;2024-03-02T12:18:31;11.50;;;7.25;;
84966;SDS011;75275;51.348;12.358;2024-03-02T12:21:00;13.20;;;7.78;;
84966;SDS011;75275;51.348;12.358;2024-03-02T12:23:29;11.88;;;6.57;;
84966;SDS011;75275;51.348;12.358;2024-03-02T12:25:56;12.00;;;6.90;;
84966;SDS011;75275;51.348;12.358;2024-03-02T12:28:23;13.15;;;7.03;;
84966;SDS011;75275;51.348;12.358;2024-03-02T12:30:50;13.82;;;7.30;;
84966;SDS011;75275;51.348;12.358;2024-03-02T12:33:17;8.98;;;5.22;;
84966;SDS011;75275;51.348;12.358;2024-03-02T12:35:44;11.55;;;5.35;;
84966;SDS011;75275;51.348;12.358;2024-03-02T12:38:17;9.40;;;5.32;;
84966;SDS011;75275;51.348;12.358;2024-03-02T12:40:44;8.88;;;5.35;;
84966;SDS011;75275;51.348;12.358;2024-03-02T12:43:13;11.07;;;7.40;;
84966;SDS011;75275;51.348;12.358;2024-03-02T12:45:42;10.88;;;6.78;;
84966;SDS011;75275;51.348;12.358;2024-03-02T12:48:09;12.95;;;7.60;;
84966;SDS011;75275;51.348;12.358;2024-03-02T12:50:36;11.10;;;6.97;;
84966;SDS011;75275;51.348;12.358;2024-03-02T12:53:03;11.10;;;6.80;;
84966;SDS011;75275;51.348;12.358;2024-03-02T12:55:32;11.85;;;7.32;;
84966;SDS011;75275;51.348;12.358;2024-03-02T12:57:59;9.32;;;6.15;;
84966;SDS011;75275;51.348;12.358;2024-03-02T13:00:28;9.50;;;6.15;;
84966;SDS011;75275;51.348;12.358;2024-03-02T13:02:57;9.48;;;5.78;;
84966;SDS011;75275;51.348;12.358;2024-03-02T13:05:29;9.73;;;5.80;;
84966;SDS011;75275;51.348;12.358;2024-03-02T13:07:56;10.85;;;5.90;;
84966;SDS011;75275;51.348;12.358;2024-03-02T13:10:24;14.63;;;6.22;;
84966;SDS011;75275;51.348;12.358;2024-03-02T13:12:53;10.55;;;6.10;;
84966;SDS011;75275;51.348;12.358;2024-03-02T13:15:21;8.90;;;5.18;;
84966;SDS011;75275;51.348;12.358;2024-03-02T13:17:48;10.52;;;5.90;;
84966;SDS011;75275;51.348;12.358;2024-03-02T13:20:16;12.73;;;6.43;;
84966;SDS011;75275;51.348;12.358;2024-03-02T13:22:44;8.93;;;5.68;;
84966;SDS011;75275;51.348;12.358;2024-03-02T13:25:11;7.72;;;4.80;;
84966;SDS011;75275;51.348;12.358;2024-03-02T13:27:38;9.27;;;5.55;;
84966;SDS011;75275;51.348;12.358;2024-03-02T13:30:09;11.15;;;5.13;;
84966;SDS011;75275;51.348;12.358;2024-03-02T13:32:36;9.82;;;5.20;;
84966;SDS011;75275;51.348;12.358;2024-03-02T13:35:05;12.10;;;6.07;;
84966;SDS011;75275;51.348;12.358;2024-03-02T13:37:32;9.80;;;5.63;;
84966;SDS011;75275;51.348;12.358;2024-03-02T13:39:59;7.97;;;5.22;;
84966;SDS011;75275;51.348;12.358;2024-03-02T13:42:30;8.35;;;5.30;;
84966;SDS011;75275;51.348;12.358;2024-03-02T13:44:57;9.95;;;6.45;;
84966;SDS011;75275;51.348;12.358;2024-03-02T13:47:26;8.63;;;5.30;;
84966;SDS011;75275;51.348;12.358;2024-03-02T13:49:53;8.02;;;4.85;;
84966;SDS011;75275;51.348;12.358;2024-03-02T13:52:20;8.57;;;5.22;;
84966;SDS011;75275;51.348;12.358;2024-03-02T13:54:47;9.63;;;6.32;;
84966;SDS011;75275;51.348;12.358;2024-03-02T13:57:17;10.63;;;5.97;;
84966;SDS011;75275;51.348;12.358;2024-03-02T13:59:45;9.95;;;6.47;;
84966;SDS011;75275;51.348;12.358;2024-03-02T14:02:12;9.95;;;6.45;;
84966;SDS011;75275;51.348;12.358;2024-03-02T14:04:40;11.55;;;6.38;;
84966;SDS011;75275;51.348;12.358;2024-03-02T14:07:07;11.50;;;7.72;;
84966;SDS011;75275;51.348;12.358;2024-03-02T14:09:35;10.68;;;6.13;;
84966;SDS011;75275;51.348;12.358;2024-03-02T14:12:03;12.68;;;6.85;;
84966;SDS011;75275;51.348;12.358;2024-03-02T14:14:31;10.50;;;6.60;;
84966;SDS011;75275;51.348;12.358;2024-03-02T14:16:58;8.27;;;6.07;;
84966;SDS011;75275;51.348;12.358;2024-03-02T14:19:29;7.95;;;5.43;;
84966;SDS011;75275;51.348;12.358;2024-03-02T14:21:58;11.18;;;6.30;;
84966;SDS011;75275;51.348;12.358;2024-03-02T14:24:25;10.88;;;6.07;;
84966;SDS011;75275;51.348;12.358;2024-03-02T14:26:53;9.25;;;5.93;;
84966;SDS011;75275;51.348;12.358;2024-03-02T14:29:20;8.77;;;5.65;;
84966;SDS011;75275;51.348;12.358;2024-03-02T14:31:47;9.13;;;5.32;;
84966;SDS011;75275;51.348;12.358;2024-03-02T14:34:14;8.57;;;6.35;;
84966;SDS011;75275;51.348;12.358;2024-03-02T14:36:41;8.65;;;5.47;;
84966;SDS011;75275;51.348;12.358;2024-03-02T14:39:11;10.45;;;5.72;;
84966;SDS011;75275;51.348;12.358;2024-03-02T14:41:38;10.77;;;5.30;;
84966;SDS011;75275;51.348;12.358;2024-03-02T14:44:06;9.02;;;5.60;;
84966;SDS011;75275;51.348;12.358;2024-03-02T14:46:33;11.85;;;6.05;;
84966;SDS011;75275;51.348;12.358;2024-03-02T14:49:00;7.63;;;5.18;;
84966;SDS011;75275;51.348;12.358;2024-03-02T14:51:27;10.98;;;5.72;;
84966;SDS011;75275;51.348;12.358;2024-03-02T14:53:55;8.85;;;5.90;;
84966;SDS011;75275;51.348;12.358;2024-03-02T14:56:23;8.10;;;5.35;;